<?xml version="1.0" encoding="UTF-8" standalone="no" ?>
<gpx xmlns="http://www.topografix.com/GPX/1/1" xmlns:xsi="http://www.w3.org/2001/XMLSchema-instance" xsi:schemaLocation="http://www.topografix.com/GPX/1/1 http://www.topografix.com/GPX/1/1/gpx.xsd" version="1.1" creator="VisuGPX - https://www.visugpx.com">
  <metadata>
    <name>Mably 12 km \&quot;Plate\&quot;  Marche / Vtc</name>
    <desc><![CDATA[Cyclemeter Vélo (Route) 27 oct. 2010 14:06:30]]></desc>
  </metadata>
  <trk>
    <name><![CDATA[Nouveau parcours]]></name>
    <trkseg>
      <trkpt lat="46.08727" lon="4.06498">
        <ele>220.3</ele>
        <time>2010-10-27T12:06:31Z</time>
      </trkpt>
      <trkpt lat="46.08717" lon="4.06481">
        <ele>224.7</ele>
        <time>2010-10-27T12:06:36Z</time>
      </trkpt>
      <trkpt lat="46.08699" lon="4.06455">
        <ele>235.3</ele>
        <time>2010-10-27T12:06:48Z</time>
      </trkpt>
      <trkpt lat="46.08654" lon="4.06436">
        <ele>250.5</ele>
        <time>2010-10-27T12:07:51Z</time>
      </trkpt>
      <trkpt lat="46.08631" lon="4.06492">
        <ele>252.9</ele>
        <time>2010-10-27T12:08:35Z</time>
      </trkpt>
      <trkpt lat="46.08603" lon="4.06545">
        <ele>254.9</ele>
        <time>2010-10-27T12:09:13Z</time>
      </trkpt>
      <trkpt lat="46.08584" lon="4.06606">
        <ele>256.8</ele>
        <time>2010-10-27T12:09:48Z</time>
      </trkpt>
      <trkpt lat="46.0857" lon="4.0663">
        <ele>257.5</ele>
        <time>2010-10-27T12:10:02Z</time>
      </trkpt>
      <trkpt lat="46.08544" lon="4.06687">
        <ele>265.1</ele>
        <time>2010-10-27T12:10:41Z</time>
      </trkpt>
      <trkpt lat="46.08527" lon="4.06752">
        <ele>268.5</ele>
        <time>2010-10-27T12:11:29Z</time>
      </trkpt>
      <trkpt lat="46.08508" lon="4.06813">
        <ele>269</ele>
        <time>2010-10-27T12:12:12Z</time>
      </trkpt>
      <trkpt lat="46.08488" lon="4.06872">
        <ele>269.5</ele>
        <time>2010-10-27T12:12:52Z</time>
      </trkpt>
      <trkpt lat="46.08473" lon="4.06933">
        <ele>270.2</ele>
        <time>2010-10-27T12:13:56Z</time>
      </trkpt>
      <trkpt lat="46.08465" lon="4.06974">
        <ele>270.5</ele>
        <time>2010-10-27T12:14:25Z</time>
      </trkpt>
      <trkpt lat="46.0847" lon="4.06976">
        <ele>270.9</ele>
        <time>2010-10-27T12:15:04Z</time>
      </trkpt>
      <trkpt lat="46.08443" lon="4.07028">
        <ele>271.5</ele>
        <time>2010-10-27T12:15:56Z</time>
      </trkpt>
      <trkpt lat="46.0842" lon="4.07085">
        <ele>271.8</ele>
        <time>2010-10-27T12:16:28Z</time>
      </trkpt>
      <trkpt lat="46.08393" lon="4.0714">
        <ele>272.1</ele>
        <time>2010-10-27T12:16:51Z</time>
      </trkpt>
      <trkpt lat="46.08367" lon="4.07196">
        <ele>272.3</ele>
        <time>2010-10-27T12:17:12Z</time>
      </trkpt>
      <trkpt lat="46.08366" lon="4.07224">
        <ele>272.5</ele>
        <time>2010-10-27T12:17:27Z</time>
      </trkpt>
      <trkpt lat="46.08412" lon="4.07231">
        <ele>272.9</ele>
        <time>2010-10-27T12:18:01Z</time>
      </trkpt>
      <trkpt lat="46.08454" lon="4.07256">
        <ele>273.4</ele>
        <time>2010-10-27T12:18:45Z</time>
      </trkpt>
      <trkpt lat="46.08485" lon="4.07287">
        <ele>273.8</ele>
        <time>2010-10-27T12:19:23Z</time>
      </trkpt>
      <trkpt lat="46.08489" lon="4.07354">
        <ele>274.2</ele>
        <time>2010-10-27T12:20:02Z</time>
      </trkpt>
      <trkpt lat="46.08492" lon="4.07419">
        <ele>274.6</ele>
        <time>2010-10-27T12:20:40Z</time>
      </trkpt>
      <trkpt lat="46.08531" lon="4.07452">
        <ele>275.2</ele>
        <time>2010-10-27T12:21:31Z</time>
      </trkpt>
      <trkpt lat="46.0857" lon="4.0749">
        <ele>275.6</ele>
        <time>2010-10-27T12:22:04Z</time>
      </trkpt>
      <trkpt lat="46.08592" lon="4.07491">
        <ele>275.8</ele>
        <time>2010-10-27T12:22:23Z</time>
      </trkpt>
      <trkpt lat="46.08635" lon="4.07512">
        <ele>276.4</ele>
        <time>2010-10-27T12:23:20Z</time>
      </trkpt>
      <trkpt lat="46.08644" lon="4.07517">
        <ele>276.6</ele>
        <time>2010-10-27T12:23:39Z</time>
      </trkpt>
      <trkpt lat="46.08667" lon="4.07511">
        <ele>277</ele>
        <time>2010-10-27T12:24:10Z</time>
      </trkpt>
      <trkpt lat="46.08666" lon="4.07517">
        <ele>277</ele>
        <time>2010-10-27T12:24:16Z</time>
      </trkpt>
      <trkpt lat="46.0871" lon="4.07534">
        <ele>277.4</ele>
        <time>2010-10-27T12:24:52Z</time>
      </trkpt>
      <trkpt lat="46.08755" lon="4.07545">
        <ele>277.9</ele>
        <time>2010-10-27T12:25:32Z</time>
      </trkpt>
      <trkpt lat="46.088" lon="4.07563">
        <ele>278</ele>
        <time>2010-10-27T12:26:18Z</time>
      </trkpt>
      <trkpt lat="46.08842" lon="4.07585">
        <ele>277.8</ele>
        <time>2010-10-27T12:26:56Z</time>
      </trkpt>
      <trkpt lat="46.08815" lon="4.07636">
        <ele>277.4</ele>
        <time>2010-10-27T12:27:43Z</time>
      </trkpt>
      <trkpt lat="46.08787" lon="4.07692">
        <ele>277.1</ele>
        <time>2010-10-27T12:28:19Z</time>
      </trkpt>
      <trkpt lat="46.08755" lon="4.07739">
        <ele>276.8</ele>
        <time>2010-10-27T12:29:03Z</time>
      </trkpt>
      <trkpt lat="46.08711" lon="4.07757">
        <ele>276.5</ele>
        <time>2010-10-27T12:29:47Z</time>
      </trkpt>
      <trkpt lat="46.08691" lon="4.07815">
        <ele>276.1</ele>
        <time>2010-10-27T12:30:29Z</time>
      </trkpt>
      <trkpt lat="46.08712" lon="4.07873">
        <ele>275.8</ele>
        <time>2010-10-27T12:31:11Z</time>
      </trkpt>
      <trkpt lat="46.08738" lon="4.07927">
        <ele>275.5</ele>
        <time>2010-10-27T12:31:51Z</time>
      </trkpt>
      <trkpt lat="46.08752" lon="4.07972">
        <ele>275.4</ele>
        <time>2010-10-27T12:32:14Z</time>
      </trkpt>
      <trkpt lat="46.08796" lon="4.0799">
        <ele>275</ele>
        <time>2010-10-27T12:33:04Z</time>
      </trkpt>
      <trkpt lat="46.08842" lon="4.07985">
        <ele>274.7</ele>
        <time>2010-10-27T12:33:46Z</time>
      </trkpt>
      <trkpt lat="46.08859" lon="4.08017">
        <ele>274.4</ele>
        <time>2010-10-27T12:34:15Z</time>
      </trkpt>
      <trkpt lat="46.08856" lon="4.08053">
        <ele>274.1</ele>
        <time>2010-10-27T12:34:59Z</time>
      </trkpt>
      <trkpt lat="46.08852" lon="4.08055">
        <ele>274</ele>
        <time>2010-10-27T12:35:17Z</time>
      </trkpt>
      <trkpt lat="46.08859" lon="4.0806">
        <ele>273.8</ele>
        <time>2010-10-27T12:35:36Z</time>
      </trkpt>
      <trkpt lat="46.08855" lon="4.08125">
        <ele>273.6</ele>
        <time>2010-10-27T12:36:12Z</time>
      </trkpt>
      <trkpt lat="46.08847" lon="4.08191">
        <ele>273.3</ele>
        <time>2010-10-27T12:36:46Z</time>
      </trkpt>
      <trkpt lat="46.08843" lon="4.08256">
        <ele>273</ele>
        <time>2010-10-27T12:37:21Z</time>
      </trkpt>
      <trkpt lat="46.08828" lon="4.08325">
        <ele>272.6</ele>
        <time>2010-10-27T12:38:16Z</time>
      </trkpt>
      <trkpt lat="46.08816" lon="4.08387">
        <ele>272.4</ele>
        <time>2010-10-27T12:38:46Z</time>
      </trkpt>
      <trkpt lat="46.08813" lon="4.08396">
        <ele>272.4</ele>
        <time>2010-10-27T12:38:52Z</time>
      </trkpt>
      <trkpt lat="46.08807" lon="4.08395">
        <ele>272.2</ele>
        <time>2010-10-27T12:39:09Z</time>
      </trkpt>
      <trkpt lat="46.08807" lon="4.08469">
        <ele>271.8</ele>
        <time>2010-10-27T12:40:01Z</time>
      </trkpt>
      <trkpt lat="46.088" lon="4.08534">
        <ele>271.5</ele>
        <time>2010-10-27T12:40:40Z</time>
      </trkpt>
      <trkpt lat="46.0877" lon="4.08607">
        <ele>271.4</ele>
        <time>2010-10-27T12:40:52Z</time>
      </trkpt>
      <trkpt lat="46.08758" lon="4.08635">
        <ele>271.3</ele>
        <time>2010-10-27T12:41:07Z</time>
      </trkpt>
      <trkpt lat="46.08738" lon="4.08701">
        <ele>271</ele>
        <time>2010-10-27T12:41:54Z</time>
      </trkpt>
      <trkpt lat="46.08729" lon="4.08729">
        <ele>270.8</ele>
        <time>2010-10-27T12:42:14Z</time>
      </trkpt>
      <trkpt lat="46.08727" lon="4.08769">
        <ele>270.1</ele>
        <time>2010-10-27T12:43:55Z</time>
      </trkpt>
      <trkpt lat="46.08732" lon="4.08773">
        <ele>270</ele>
        <time>2010-10-27T12:43:58Z</time>
      </trkpt>
      <trkpt lat="46.08741" lon="4.08772">
        <ele>270</ele>
        <time>2010-10-27T12:44:08Z</time>
      </trkpt>
      <trkpt lat="46.08737" lon="4.08774">
        <ele>269.8</ele>
        <time>2010-10-27T12:44:34Z</time>
      </trkpt>
      <trkpt lat="46.08725" lon="4.08798">
        <ele>269.6</ele>
        <time>2010-10-27T12:44:59Z</time>
      </trkpt>
      <trkpt lat="46.08723" lon="4.08807">
        <ele>269.4</ele>
        <time>2010-10-27T12:45:21Z</time>
      </trkpt>
      <trkpt lat="46.08689" lon="4.08855">
        <ele>268.9</ele>
        <time>2010-10-27T12:46:31Z</time>
      </trkpt>
      <trkpt lat="46.0866" lon="4.08906">
        <ele>268.8</ele>
        <time>2010-10-27T12:46:45Z</time>
      </trkpt>
      <trkpt lat="46.0865" lon="4.08931">
        <ele>268.7</ele>
        <time>2010-10-27T12:46:57Z</time>
      </trkpt>
      <trkpt lat="46.08652" lon="4.08933">
        <ele>268.6</ele>
        <time>2010-10-27T12:47:03Z</time>
      </trkpt>
      <trkpt lat="46.08647" lon="4.09004">
        <ele>268.3</ele>
        <time>2010-10-27T12:47:43Z</time>
      </trkpt>
      <trkpt lat="46.08642" lon="4.09071">
        <ele>268.2</ele>
        <time>2010-10-27T12:48:00Z</time>
      </trkpt>
      <trkpt lat="46.08638" lon="4.09129">
        <ele>268</ele>
        <time>2010-10-27T12:48:33Z</time>
      </trkpt>
      <trkpt lat="46.08644" lon="4.09151">
        <ele>267.9</ele>
        <time>2010-10-27T12:48:48Z</time>
      </trkpt>
      <trkpt lat="46.08639" lon="4.09204">
        <ele>267.5</ele>
        <time>2010-10-27T12:49:50Z</time>
      </trkpt>
      <trkpt lat="46.08641" lon="4.09269">
        <ele>267.3</ele>
        <time>2010-10-27T12:50:27Z</time>
      </trkpt>
      <trkpt lat="46.08645" lon="4.09335">
        <ele>267.1</ele>
        <time>2010-10-27T12:51:05Z</time>
      </trkpt>
      <trkpt lat="46.08684" lon="4.09379">
        <ele>266.9</ele>
        <time>2010-10-27T12:51:44Z</time>
      </trkpt>
      <trkpt lat="46.08721" lon="4.09418">
        <ele>266.6</ele>
        <time>2010-10-27T12:52:23Z</time>
      </trkpt>
      <trkpt lat="46.08756" lon="4.09461">
        <ele>266.4</ele>
        <time>2010-10-27T12:52:59Z</time>
      </trkpt>
      <trkpt lat="46.08795" lon="4.09498">
        <ele>266.2</ele>
        <time>2010-10-27T12:53:41Z</time>
      </trkpt>
      <trkpt lat="46.08839" lon="4.09516">
        <ele>265.9</ele>
        <time>2010-10-27T12:54:22Z</time>
      </trkpt>
      <trkpt lat="46.08884" lon="4.09535">
        <ele>265.7</ele>
        <time>2010-10-27T12:55:03Z</time>
      </trkpt>
      <trkpt lat="46.08929" lon="4.09556">
        <ele>265.4</ele>
        <time>2010-10-27T12:55:47Z</time>
      </trkpt>
      <trkpt lat="46.08974" lon="4.09567">
        <ele>265.2</ele>
        <time>2010-10-27T12:56:26Z</time>
      </trkpt>
      <trkpt lat="46.09018" lon="4.09586">
        <ele>264.9</ele>
        <time>2010-10-27T12:57:02Z</time>
      </trkpt>
      <trkpt lat="46.09063" lon="4.09599">
        <ele>264.7</ele>
        <time>2010-10-27T12:57:45Z</time>
      </trkpt>
      <trkpt lat="46.09109" lon="4.0961">
        <ele>264.4</ele>
        <time>2010-10-27T12:58:28Z</time>
      </trkpt>
      <trkpt lat="46.09132" lon="4.09664">
        <ele>264.1</ele>
        <time>2010-10-27T12:59:24Z</time>
      </trkpt>
      <trkpt lat="46.09132" lon="4.09729">
        <ele>263.6</ele>
        <time>2010-10-27T13:00:41Z</time>
      </trkpt>
      <trkpt lat="46.09136" lon="4.09782">
        <ele>263.4</ele>
        <time>2010-10-27T13:01:14Z</time>
      </trkpt>
      <trkpt lat="46.0911" lon="4.09835">
        <ele>263.2</ele>
        <time>2010-10-27T13:02:00Z</time>
      </trkpt>
      <trkpt lat="46.09129" lon="4.09892">
        <ele>262.7</ele>
        <time>2010-10-27T13:03:08Z</time>
      </trkpt>
      <trkpt lat="46.09138" lon="4.09939">
        <ele>262.5</ele>
        <time>2010-10-27T13:03:47Z</time>
      </trkpt>
      <trkpt lat="46.09142" lon="4.09943">
        <ele>262.3</ele>
        <time>2010-10-27T13:04:15Z</time>
      </trkpt>
      <trkpt lat="46.09151" lon="4.10008">
        <ele>262</ele>
        <time>2010-10-27T13:05:16Z</time>
      </trkpt>
      <trkpt lat="46.09154" lon="4.10073">
        <ele>261.8</ele>
        <time>2010-10-27T13:05:51Z</time>
      </trkpt>
      <trkpt lat="46.09175" lon="4.10131">
        <ele>261.5</ele>
        <time>2010-10-27T13:06:31Z</time>
      </trkpt>
      <trkpt lat="46.09177" lon="4.10135">
        <ele>261.5</ele>
        <time>2010-10-27T13:06:36Z</time>
      </trkpt>
      <trkpt lat="46.09171" lon="4.10143">
        <ele>261.4</ele>
        <time>2010-10-27T13:06:55Z</time>
      </trkpt>
      <trkpt lat="46.09155" lon="4.10147">
        <ele>260.3</ele>
        <time>2010-10-27T13:09:52Z</time>
      </trkpt>
      <trkpt lat="46.09159" lon="4.10148">
        <ele>260.2</ele>
        <time>2010-10-27T13:10:10Z</time>
      </trkpt>
      <trkpt lat="46.09155" lon="4.10151">
        <ele>259.8</ele>
        <time>2010-10-27T13:11:19Z</time>
      </trkpt>
      <trkpt lat="46.09148" lon="4.10143">
        <ele>259.2</ele>
        <time>2010-10-27T13:13:06Z</time>
      </trkpt>
      <trkpt lat="46.09151" lon="4.10149">
        <ele>258.8</ele>
        <time>2010-10-27T13:14:04Z</time>
      </trkpt>
      <trkpt lat="46.09161" lon="4.10139">
        <ele>258.5</ele>
        <time>2010-10-27T13:14:54Z</time>
      </trkpt>
      <trkpt lat="46.09206" lon="4.10119">
        <ele>258.4</ele>
        <time>2010-10-27T13:15:13Z</time>
      </trkpt>
      <trkpt lat="46.09249" lon="4.10097">
        <ele>258.3</ele>
        <time>2010-10-27T13:15:31Z</time>
      </trkpt>
      <trkpt lat="46.09291" lon="4.10074">
        <ele>258.2</ele>
        <time>2010-10-27T13:15:50Z</time>
      </trkpt>
      <trkpt lat="46.09334" lon="4.10049">
        <ele>258.1</ele>
        <time>2010-10-27T13:16:08Z</time>
      </trkpt>
      <trkpt lat="46.09375" lon="4.1002">
        <ele>258</ele>
        <time>2010-10-27T13:16:25Z</time>
      </trkpt>
      <trkpt lat="46.09418" lon="4.09992">
        <ele>257.8</ele>
        <time>2010-10-27T13:16:50Z</time>
      </trkpt>
      <trkpt lat="46.09457" lon="4.09959">
        <ele>257.7</ele>
        <time>2010-10-27T13:17:09Z</time>
      </trkpt>
      <trkpt lat="46.095" lon="4.09935">
        <ele>257.6</ele>
        <time>2010-10-27T13:17:26Z</time>
      </trkpt>
      <trkpt lat="46.09542" lon="4.09899">
        <ele>257.5</ele>
        <time>2010-10-27T13:17:44Z</time>
      </trkpt>
      <trkpt lat="46.09583" lon="4.09866">
        <ele>257.6</ele>
        <time>2010-10-27T13:18:04Z</time>
      </trkpt>
      <trkpt lat="46.09624" lon="4.0983">
        <ele>258</ele>
        <time>2010-10-27T13:18:23Z</time>
      </trkpt>
      <trkpt lat="46.09664" lon="4.09799">
        <ele>258.4</ele>
        <time>2010-10-27T13:18:41Z</time>
      </trkpt>
      <trkpt lat="46.09711" lon="4.09774">
        <ele>259.3</ele>
        <time>2010-10-27T13:19:20Z</time>
      </trkpt>
      <trkpt lat="46.09756" lon="4.09753">
        <ele>260.5</ele>
        <time>2010-10-27T13:20:16Z</time>
      </trkpt>
      <trkpt lat="46.09798" lon="4.09727">
        <ele>261.8</ele>
        <time>2010-10-27T13:21:12Z</time>
      </trkpt>
      <trkpt lat="46.0984" lon="4.09703">
        <ele>262.6</ele>
        <time>2010-10-27T13:21:51Z</time>
      </trkpt>
      <trkpt lat="46.09888" lon="4.09691">
        <ele>263.4</ele>
        <time>2010-10-27T13:22:28Z</time>
      </trkpt>
      <trkpt lat="46.09931" lon="4.09668">
        <ele>264.5</ele>
        <time>2010-10-27T13:23:18Z</time>
      </trkpt>
      <trkpt lat="46.09972" lon="4.09641">
        <ele>265.3</ele>
        <time>2010-10-27T13:23:52Z</time>
      </trkpt>
      <trkpt lat="46.10015" lon="4.09615">
        <ele>266.4</ele>
        <time>2010-10-27T13:24:43Z</time>
      </trkpt>
      <trkpt lat="46.10058" lon="4.09593">
        <ele>267.4</ele>
        <time>2010-10-27T13:25:29Z</time>
      </trkpt>
      <trkpt lat="46.10104" lon="4.09572">
        <ele>268</ele>
        <time>2010-10-27T13:26:10Z</time>
      </trkpt>
      <trkpt lat="46.10147" lon="4.09544">
        <ele>268.1</ele>
        <time>2010-10-27T13:26:53Z</time>
      </trkpt>
      <trkpt lat="46.10186" lon="4.09508">
        <ele>268.2</ele>
        <time>2010-10-27T13:27:36Z</time>
      </trkpt>
      <trkpt lat="46.10208" lon="4.09489">
        <ele>268.3</ele>
        <time>2010-10-27T13:28:02Z</time>
      </trkpt>
      <trkpt lat="46.10251" lon="4.09468">
        <ele>268.5</ele>
        <time>2010-10-27T13:28:58Z</time>
      </trkpt>
      <trkpt lat="46.10253" lon="4.09411">
        <ele>268.6</ele>
        <time>2010-10-27T13:29:46Z</time>
      </trkpt>
      <trkpt lat="46.10258" lon="4.0941">
        <ele>268.7</ele>
        <time>2010-10-27T13:30:02Z</time>
      </trkpt>
      <trkpt lat="46.1026" lon="4.09417">
        <ele>268.7</ele>
        <time>2010-10-27T13:30:17Z</time>
      </trkpt>
      <trkpt lat="46.10257" lon="4.09419">
        <ele>268.8</ele>
        <time>2010-10-27T13:30:31Z</time>
      </trkpt>
      <trkpt lat="46.10227" lon="4.0937">
        <ele>268.9</ele>
        <time>2010-10-27T13:31:03Z</time>
      </trkpt>
      <trkpt lat="46.10191" lon="4.09329">
        <ele>269</ele>
        <time>2010-10-27T13:31:39Z</time>
      </trkpt>
      <trkpt lat="46.10155" lon="4.0929">
        <ele>269.1</ele>
        <time>2010-10-27T13:32:11Z</time>
      </trkpt>
      <trkpt lat="46.10119" lon="4.0925">
        <ele>269.2</ele>
        <time>2010-10-27T13:32:42Z</time>
      </trkpt>
      <trkpt lat="46.10082" lon="4.09212">
        <ele>269.3</ele>
        <time>2010-10-27T13:33:16Z</time>
      </trkpt>
      <trkpt lat="46.10046" lon="4.0917">
        <ele>269.4</ele>
        <time>2010-10-27T13:33:51Z</time>
      </trkpt>
      <trkpt lat="46.10005" lon="4.09136">
        <ele>269.5</ele>
        <time>2010-10-27T13:34:25Z</time>
      </trkpt>
      <trkpt lat="46.09963" lon="4.09161">
        <ele>269.6</ele>
        <time>2010-10-27T13:35:12Z</time>
      </trkpt>
      <trkpt lat="46.09918" lon="4.0917">
        <ele>269.8</ele>
        <time>2010-10-27T13:35:56Z</time>
      </trkpt>
      <trkpt lat="46.09874" lon="4.09149">
        <ele>269.9</ele>
        <time>2010-10-27T13:36:36Z</time>
      </trkpt>
      <trkpt lat="46.09829" lon="4.09131">
        <ele>270</ele>
        <time>2010-10-27T13:37:18Z</time>
      </trkpt>
      <trkpt lat="46.09829" lon="4.09066">
        <ele>270.1</ele>
        <time>2010-10-27T13:38:01Z</time>
      </trkpt>
      <trkpt lat="46.09842" lon="4.09003">
        <ele>270.3</ele>
        <time>2010-10-27T13:38:43Z</time>
      </trkpt>
      <trkpt lat="46.09856" lon="4.0894">
        <ele>270.4</ele>
        <time>2010-10-27T13:39:19Z</time>
      </trkpt>
      <trkpt lat="46.09881" lon="4.08881">
        <ele>270.5</ele>
        <time>2010-10-27T13:39:59Z</time>
      </trkpt>
      <trkpt lat="46.09913" lon="4.08828">
        <ele>270.6</ele>
        <time>2010-10-27T13:40:41Z</time>
      </trkpt>
      <trkpt lat="46.09937" lon="4.0877">
        <ele>270.8</ele>
        <time>2010-10-27T13:41:24Z</time>
      </trkpt>
      <trkpt lat="46.09962" lon="4.08715">
        <ele>270.9</ele>
        <time>2010-10-27T13:42:04Z</time>
      </trkpt>
      <trkpt lat="46.09982" lon="4.08656">
        <ele>271</ele>
        <time>2010-10-27T13:42:40Z</time>
      </trkpt>
      <trkpt lat="46.09979" lon="4.08645">
        <ele>271</ele>
        <time>2010-10-27T13:42:47Z</time>
      </trkpt>
      <trkpt lat="46.09976" lon="4.08643">
        <ele>271</ele>
        <time>2010-10-27T13:42:55Z</time>
      </trkpt>
      <trkpt lat="46.09932" lon="4.08624">
        <ele>271.2</ele>
        <time>2010-10-27T13:44:01Z</time>
      </trkpt>
      <trkpt lat="46.0991" lon="4.08593">
        <ele>271.3</ele>
        <time>2010-10-27T13:44:31Z</time>
      </trkpt>
      <trkpt lat="46.09881" lon="4.08539">
        <ele>271.5</ele>
        <time>2010-10-27T13:45:14Z</time>
      </trkpt>
      <trkpt lat="46.09861" lon="4.08479">
        <ele>271.6</ele>
        <time>2010-10-27T13:45:54Z</time>
      </trkpt>
      <trkpt lat="46.0987" lon="4.0847">
        <ele>271.6</ele>
        <time>2010-10-27T13:46:11Z</time>
      </trkpt>
      <trkpt lat="46.09879" lon="4.08474">
        <ele>271.7</ele>
        <time>2010-10-27T13:46:25Z</time>
      </trkpt>
      <trkpt lat="46.09925" lon="4.08469">
        <ele>271.8</ele>
        <time>2010-10-27T13:47:22Z</time>
      </trkpt>
      <trkpt lat="46.09969" lon="4.08454">
        <ele>272</ele>
        <time>2010-10-27T13:48:06Z</time>
      </trkpt>
      <trkpt lat="46.10013" lon="4.08431">
        <ele>272.1</ele>
        <time>2010-10-27T13:48:42Z</time>
      </trkpt>
      <trkpt lat="46.10052" lon="4.08397">
        <ele>272.2</ele>
        <time>2010-10-27T13:49:21Z</time>
      </trkpt>
      <trkpt lat="46.10091" lon="4.08361">
        <ele>272.4</ele>
        <time>2010-10-27T13:50:09Z</time>
      </trkpt>
      <trkpt lat="46.10117" lon="4.08339">
        <ele>272.4</ele>
        <time>2010-10-27T13:50:39Z</time>
      </trkpt>
      <trkpt lat="46.10117" lon="4.08332">
        <ele>272.5</ele>
        <time>2010-10-27T13:50:56Z</time>
      </trkpt>
      <trkpt lat="46.10119" lon="4.08327">
        <ele>272.5</ele>
        <time>2010-10-27T13:51:11Z</time>
      </trkpt>
      <trkpt lat="46.10124" lon="4.08327">
        <ele>272.6</ele>
        <time>2010-10-27T13:51:31Z</time>
      </trkpt>
      <trkpt lat="46.10129" lon="4.08333">
        <ele>272.7</ele>
        <time>2010-10-27T13:52:01Z</time>
      </trkpt>
      <trkpt lat="46.10125" lon="4.08321">
        <ele>272.8</ele>
        <time>2010-10-27T13:52:23Z</time>
      </trkpt>
      <trkpt lat="46.10124" lon="4.08322">
        <ele>272.8</ele>
        <time>2010-10-27T13:52:25Z</time>
      </trkpt>
      <trkpt lat="46.10124" lon="4.08329">
        <ele>272.9</ele>
        <time>2010-10-27T13:52:54Z</time>
      </trkpt>
      <trkpt lat="46.10127" lon="4.08324">
        <ele>273</ele>
        <time>2010-10-27T13:53:32Z</time>
      </trkpt>
      <trkpt lat="46.10171" lon="4.08309">
        <ele>273.1</ele>
        <time>2010-10-27T13:54:26Z</time>
      </trkpt>
      <trkpt lat="46.10216" lon="4.08305">
        <ele>273.3</ele>
        <time>2010-10-27T13:55:05Z</time>
      </trkpt>
      <trkpt lat="46.10262" lon="4.08313">
        <ele>273.4</ele>
        <time>2010-10-27T13:55:39Z</time>
      </trkpt>
      <trkpt lat="46.10305" lon="4.08335">
        <ele>273.5</ele>
        <time>2010-10-27T13:56:11Z</time>
      </trkpt>
      <trkpt lat="46.10348" lon="4.08355">
        <ele>273.6</ele>
        <time>2010-10-27T13:56:43Z</time>
      </trkpt>
      <trkpt lat="46.10395" lon="4.08376">
        <ele>273.7</ele>
        <time>2010-10-27T13:57:14Z</time>
      </trkpt>
      <trkpt lat="46.10399" lon="4.08382">
        <ele>273.7</ele>
        <time>2010-10-27T13:57:29Z</time>
      </trkpt>
      <trkpt lat="46.10401" lon="4.08386">
        <ele>273.7</ele>
        <time>2010-10-27T13:57:38Z</time>
      </trkpt>
      <trkpt lat="46.10407" lon="4.08372">
        <ele>273.8</ele>
        <time>2010-10-27T13:58:14Z</time>
      </trkpt>
      <trkpt lat="46.10403" lon="4.08369">
        <ele>273.9</ele>
        <time>2010-10-27T13:58:26Z</time>
      </trkpt>
      <trkpt lat="46.10401" lon="4.08375">
        <ele>273.9</ele>
        <time>2010-10-27T13:58:37Z</time>
      </trkpt>
      <trkpt lat="46.10405" lon="4.08357">
        <ele>274</ele>
        <time>2010-10-27T13:59:00Z</time>
      </trkpt>
      <trkpt lat="46.10412" lon="4.08359">
        <ele>274.1</ele>
        <time>2010-10-27T13:59:51Z</time>
      </trkpt>
      <trkpt lat="46.10408" lon="4.08362">
        <ele>274.2</ele>
        <time>2010-10-27T14:00:02Z</time>
      </trkpt>
      <trkpt lat="46.10406" lon="4.08369">
        <ele>274.2</ele>
        <time>2010-10-27T14:00:13Z</time>
      </trkpt>
      <trkpt lat="46.10409" lon="4.08374">
        <ele>274.2</ele>
        <time>2010-10-27T14:00:26Z</time>
      </trkpt>
      <trkpt lat="46.10404" lon="4.08363">
        <ele>274.5</ele>
        <time>2010-10-27T14:01:53Z</time>
      </trkpt>
      <trkpt lat="46.10426" lon="4.08305">
        <ele>274.8</ele>
        <time>2010-10-27T14:03:23Z</time>
      </trkpt>
      <trkpt lat="46.10456" lon="4.08256">
        <ele>274.9</ele>
        <time>2010-10-27T14:04:10Z</time>
      </trkpt>
      <trkpt lat="46.10487" lon="4.08208">
        <ele>275</ele>
        <time>2010-10-27T14:04:47Z</time>
      </trkpt>
      <trkpt lat="46.1052" lon="4.08162">
        <ele>275.2</ele>
        <time>2010-10-27T14:05:27Z</time>
      </trkpt>
      <trkpt lat="46.10547" lon="4.08108">
        <ele>275.3</ele>
        <time>2010-10-27T14:06:10Z</time>
      </trkpt>
      <trkpt lat="46.10563" lon="4.08047">
        <ele>275.4</ele>
        <time>2010-10-27T14:06:55Z</time>
      </trkpt>
      <trkpt lat="46.10567" lon="4.0798">
        <ele>275.6</ele>
        <time>2010-10-27T14:07:37Z</time>
      </trkpt>
      <trkpt lat="46.10561" lon="4.07939">
        <ele>275.7</ele>
        <time>2010-10-27T14:08:31Z</time>
      </trkpt>
      <trkpt lat="46.10564" lon="4.07871">
        <ele>276</ele>
        <time>2010-10-27T14:09:59Z</time>
      </trkpt>
      <trkpt lat="46.10563" lon="4.07803">
        <ele>276.1</ele>
        <time>2010-10-27T14:10:34Z</time>
      </trkpt>
      <trkpt lat="46.10565" lon="4.07778">
        <ele>276.1</ele>
        <time>2010-10-27T14:10:49Z</time>
      </trkpt>
      <trkpt lat="46.10609" lon="4.07749">
        <ele>276.2</ele>
        <time>2010-10-27T14:11:14Z</time>
      </trkpt>
      <trkpt lat="46.10607" lon="4.07684">
        <ele>276.3</ele>
        <time>2010-10-27T14:11:56Z</time>
      </trkpt>
      <trkpt lat="46.10606" lon="4.07618">
        <ele>276.4</ele>
        <time>2010-10-27T14:12:29Z</time>
      </trkpt>
      <trkpt lat="46.10605" lon="4.07551">
        <ele>276.5</ele>
        <time>2010-10-27T14:13:02Z</time>
      </trkpt>
      <trkpt lat="46.10604" lon="4.07483">
        <ele>276.6</ele>
        <time>2010-10-27T14:13:33Z</time>
      </trkpt>
      <trkpt lat="46.10608" lon="4.07417">
        <ele>276.8</ele>
        <time>2010-10-27T14:14:10Z</time>
      </trkpt>
      <trkpt lat="46.10624" lon="4.07356">
        <ele>276.9</ele>
        <time>2010-10-27T14:14:47Z</time>
      </trkpt>
      <trkpt lat="46.10648" lon="4.07299">
        <ele>277</ele>
        <time>2010-10-27T14:15:26Z</time>
      </trkpt>
      <trkpt lat="46.10672" lon="4.07243">
        <ele>277.1</ele>
        <time>2010-10-27T14:16:00Z</time>
      </trkpt>
      <trkpt lat="46.10689" lon="4.07182">
        <ele>277.2</ele>
        <time>2010-10-27T14:16:42Z</time>
      </trkpt>
      <trkpt lat="46.10703" lon="4.07121">
        <ele>277.4</ele>
        <time>2010-10-27T14:17:30Z</time>
      </trkpt>
      <trkpt lat="46.10716" lon="4.07056">
        <ele>277.5</ele>
        <time>2010-10-27T14:18:12Z</time>
      </trkpt>
      <trkpt lat="46.10729" lon="4.06992">
        <ele>277.6</ele>
        <time>2010-10-27T14:18:53Z</time>
      </trkpt>
      <trkpt lat="46.10733" lon="4.06926">
        <ele>277.7</ele>
        <time>2010-10-27T14:19:31Z</time>
      </trkpt>
      <trkpt lat="46.10739" lon="4.0686">
        <ele>277.9</ele>
        <time>2010-10-27T14:20:11Z</time>
      </trkpt>
      <trkpt lat="46.10746" lon="4.06795">
        <ele>278.6</ele>
        <time>2010-10-27T14:21:09Z</time>
      </trkpt>
      <trkpt lat="46.10752" lon="4.06727">
        <ele>279.4</ele>
        <time>2010-10-27T14:21:53Z</time>
      </trkpt>
      <trkpt lat="46.10762" lon="4.06662">
        <ele>280.2</ele>
        <time>2010-10-27T14:22:34Z</time>
      </trkpt>
      <trkpt lat="46.10773" lon="4.06597">
        <ele>281</ele>
        <time>2010-10-27T14:23:14Z</time>
      </trkpt>
      <trkpt lat="46.10775" lon="4.0654">
        <ele>281.7</ele>
        <time>2010-10-27T14:23:52Z</time>
      </trkpt>
      <trkpt lat="46.1073" lon="4.06526">
        <ele>282.5</ele>
        <time>2010-10-27T14:24:33Z</time>
      </trkpt>
      <trkpt lat="46.10684" lon="4.06519">
        <ele>283.5</ele>
        <time>2010-10-27T14:25:27Z</time>
      </trkpt>
      <trkpt lat="46.10665" lon="4.06457">
        <ele>284.4</ele>
        <time>2010-10-27T14:26:15Z</time>
      </trkpt>
      <trkpt lat="46.10658" lon="4.06391">
        <ele>285.4</ele>
        <time>2010-10-27T14:27:09Z</time>
      </trkpt>
      <trkpt lat="46.10657" lon="4.06361">
        <ele>285.9</ele>
        <time>2010-10-27T14:27:39Z</time>
      </trkpt>
      <trkpt lat="46.10652" lon="4.06363">
        <ele>286.3</ele>
        <time>2010-10-27T14:27:57Z</time>
      </trkpt>
      <trkpt lat="46.10655" lon="4.0634">
        <ele>287.9</ele>
        <time>2010-10-27T14:29:30Z</time>
      </trkpt>
      <trkpt lat="46.10654" lon="4.06342">
        <ele>288</ele>
        <time>2010-10-27T14:29:54Z</time>
      </trkpt>
      <trkpt lat="46.10656" lon="4.06335">
        <ele>288</ele>
        <time>2010-10-27T14:30:09Z</time>
      </trkpt>
      <trkpt lat="46.10649" lon="4.06327">
        <ele>288</ele>
        <time>2010-10-27T14:30:31Z</time>
      </trkpt>
      <trkpt lat="46.10606" lon="4.06302">
        <ele>288</ele>
        <time>2010-10-27T14:31:17Z</time>
      </trkpt>
      <trkpt lat="46.10583" lon="4.06294">
        <ele>288</ele>
        <time>2010-10-27T14:31:33Z</time>
      </trkpt>
      <trkpt lat="46.10549" lon="4.06281">
        <ele>288</ele>
        <time>2010-10-27T14:31:57Z</time>
      </trkpt>
      <trkpt lat="46.10503" lon="4.06283">
        <ele>288.1</ele>
        <time>2010-10-27T14:32:31Z</time>
      </trkpt>
      <trkpt lat="46.10474" lon="4.06333">
        <ele>288.1</ele>
        <time>2010-10-27T14:33:05Z</time>
      </trkpt>
      <trkpt lat="46.10457" lon="4.06373">
        <ele>288.1</ele>
        <time>2010-10-27T14:33:49Z</time>
      </trkpt>
      <trkpt lat="46.10446" lon="4.06388">
        <ele>288.2</ele>
        <time>2010-10-27T14:34:14Z</time>
      </trkpt>
      <trkpt lat="46.10424" lon="4.06445">
        <ele>288.2</ele>
        <time>2010-10-27T14:35:40Z</time>
      </trkpt>
      <trkpt lat="46.104" lon="4.065">
        <ele>288.2</ele>
        <time>2010-10-27T14:36:24Z</time>
      </trkpt>
      <trkpt lat="46.10367" lon="4.06545">
        <ele>288.3</ele>
        <time>2010-10-27T14:37:06Z</time>
      </trkpt>
      <trkpt lat="46.10326" lon="4.06573">
        <ele>288.3</ele>
        <time>2010-10-27T14:37:44Z</time>
      </trkpt>
      <trkpt lat="46.10307" lon="4.06584">
        <ele>288.3</ele>
        <time>2010-10-27T14:38:01Z</time>
      </trkpt>
      <trkpt lat="46.10267" lon="4.06617">
        <ele>288.4</ele>
        <time>2010-10-27T14:39:32Z</time>
      </trkpt>
      <trkpt lat="46.10226" lon="4.06648">
        <ele>288.4</ele>
        <time>2010-10-27T14:40:25Z</time>
      </trkpt>
      <trkpt lat="46.10183" lon="4.06677">
        <ele>288.5</ele>
        <time>2010-10-27T14:40:56Z</time>
      </trkpt>
      <trkpt lat="46.10138" lon="4.06671">
        <ele>288.5</ele>
        <time>2010-10-27T14:41:30Z</time>
      </trkpt>
      <trkpt lat="46.10092" lon="4.06662">
        <ele>288.5</ele>
        <time>2010-10-27T14:42:02Z</time>
      </trkpt>
      <trkpt lat="46.10046" lon="4.06654">
        <ele>288.5</ele>
        <time>2010-10-27T14:42:32Z</time>
      </trkpt>
      <trkpt lat="46.10002" lon="4.06646">
        <ele>288.5</ele>
        <time>2010-10-27T14:43:08Z</time>
      </trkpt>
      <trkpt lat="46.09956" lon="4.0664">
        <ele>288.6</ele>
        <time>2010-10-27T14:43:49Z</time>
      </trkpt>
      <trkpt lat="46.09908" lon="4.06634">
        <ele>288.6</ele>
        <time>2010-10-27T14:44:32Z</time>
      </trkpt>
      <trkpt lat="46.09862" lon="4.06639">
        <ele>288.6</ele>
        <time>2010-10-27T14:45:13Z</time>
      </trkpt>
      <trkpt lat="46.09837" lon="4.06639">
        <ele>288.7</ele>
        <time>2010-10-27T14:45:32Z</time>
      </trkpt>
      <trkpt lat="46.09837" lon="4.06633">
        <ele>288.7</ele>
        <time>2010-10-27T14:46:07Z</time>
      </trkpt>
      <trkpt lat="46.09792" lon="4.06635">
        <ele>288.7</ele>
        <time>2010-10-27T14:46:51Z</time>
      </trkpt>
      <trkpt lat="46.09747" lon="4.06641">
        <ele>288.7</ele>
        <time>2010-10-27T14:47:21Z</time>
      </trkpt>
      <trkpt lat="46.09701" lon="4.06644">
        <ele>288.8</ele>
        <time>2010-10-27T14:47:51Z</time>
      </trkpt>
      <trkpt lat="46.09656" lon="4.06654">
        <ele>288.8</ele>
        <time>2010-10-27T14:48:23Z</time>
      </trkpt>
      <trkpt lat="46.09611" lon="4.06664">
        <ele>288.8</ele>
        <time>2010-10-27T14:48:59Z</time>
      </trkpt>
      <trkpt lat="46.09567" lon="4.06683">
        <ele>288.8</ele>
        <time>2010-10-27T14:49:34Z</time>
      </trkpt>
      <trkpt lat="46.0952" lon="4.06703">
        <ele>288.9</ele>
        <time>2010-10-27T14:50:09Z</time>
      </trkpt>
      <trkpt lat="46.09473" lon="4.0671">
        <ele>288.9</ele>
        <time>2010-10-27T14:50:52Z</time>
      </trkpt>
      <trkpt lat="46.09468" lon="4.0671">
        <ele>288.9</ele>
        <time>2010-10-27T14:50:58Z</time>
      </trkpt>
      <trkpt lat="46.09421" lon="4.06693">
        <ele>288.9</ele>
        <time>2010-10-27T14:51:57Z</time>
      </trkpt>
      <trkpt lat="46.09374" lon="4.06675">
        <ele>289</ele>
        <time>2010-10-27T14:52:40Z</time>
      </trkpt>
      <trkpt lat="46.09327" lon="4.06654">
        <ele>289</ele>
        <time>2010-10-27T14:53:18Z</time>
      </trkpt>
      <trkpt lat="46.09281" lon="4.06654">
        <ele>289</ele>
        <time>2010-10-27T14:53:59Z</time>
      </trkpt>
      <trkpt lat="46.09257" lon="4.06662">
        <ele>289.1</ele>
        <time>2010-10-27T14:54:20Z</time>
      </trkpt>
      <trkpt lat="46.09211" lon="4.06685">
        <ele>289.1</ele>
        <time>2010-10-27T14:55:02Z</time>
      </trkpt>
      <trkpt lat="46.09168" lon="4.06692">
        <ele>289.1</ele>
        <time>2010-10-27T14:55:38Z</time>
      </trkpt>
      <trkpt lat="46.09119" lon="4.06685">
        <ele>289.2</ele>
        <time>2010-10-27T14:56:35Z</time>
      </trkpt>
      <trkpt lat="46.09074" lon="4.06679">
        <ele>289.2</ele>
        <time>2010-10-27T14:57:24Z</time>
      </trkpt>
      <trkpt lat="46.09028" lon="4.06665">
        <ele>289.2</ele>
        <time>2010-10-27T14:57:58Z</time>
      </trkpt>
      <trkpt lat="46.08999" lon="4.06646">
        <ele>289.2</ele>
        <time>2010-10-27T14:58:25Z</time>
      </trkpt>
      <trkpt lat="46.0901" lon="4.06578">
        <ele>289.3</ele>
        <time>2010-10-27T14:59:20Z</time>
      </trkpt>
      <trkpt lat="46.09024" lon="4.06515">
        <ele>289.3</ele>
        <time>2010-10-27T15:00:14Z</time>
      </trkpt>
      <trkpt lat="46.09028" lon="4.06491">
        <ele>289.3</ele>
        <time>2010-10-27T15:00:33Z</time>
      </trkpt>
      <trkpt lat="46.09026" lon="4.06484">
        <ele>289.3</ele>
        <time>2010-10-27T15:00:40Z</time>
      </trkpt>
      <trkpt lat="46.0903" lon="4.0648">
        <ele>289.4</ele>
        <time>2010-10-27T15:01:03Z</time>
      </trkpt>
      <trkpt lat="46.08984" lon="4.06473">
        <ele>289.4</ele>
        <time>2010-10-27T15:02:26Z</time>
      </trkpt>
      <trkpt lat="46.08939" lon="4.06461">
        <ele>289.5</ele>
        <time>2010-10-27T15:03:12Z</time>
      </trkpt>
      <trkpt lat="46.08894" lon="4.06451">
        <ele>289.5</ele>
        <time>2010-10-27T15:03:49Z</time>
      </trkpt>
      <trkpt lat="46.08849" lon="4.06451">
        <ele>289.5</ele>
        <time>2010-10-27T15:04:33Z</time>
      </trkpt>
      <trkpt lat="46.08806" lon="4.06476">
        <ele>289.5</ele>
        <time>2010-10-27T15:05:20Z</time>
      </trkpt>
      <trkpt lat="46.08762" lon="4.06491">
        <ele>289.6</ele>
        <time>2010-10-27T15:06:28Z</time>
      </trkpt>
      <trkpt lat="46.08735" lon="4.06472">
        <ele>289.6</ele>
        <time>2010-10-27T15:07:03Z</time>
      </trkpt>
      <trkpt lat="46.08722" lon="4.06451">
        <ele>289.6</ele>
        <time>2010-10-27T15:07:26Z</time>
      </trkpt>
      <trkpt lat="46.08713" lon="4.06453">
        <ele>289.7</ele>
        <time>2010-10-27T15:08:30Z</time>
      </trkpt>
      <trkpt lat="46.08712" lon="4.06455">
        <ele>289.8</ele>
        <time>2010-10-27T15:10:09Z</time>
      </trkpt>
      <trkpt lat="46.08714" lon="4.0645">
        <ele>289.8</ele>
        <time>2010-10-27T15:10:21Z</time>
      </trkpt>
      <trkpt lat="46.08718" lon="4.06448">
        <ele>289.8</ele>
        <time>2010-10-27T15:10:49Z</time>
      </trkpt>
      <trkpt lat="46.08723" lon="4.0645">
        <ele>289.8</ele>
        <time>2010-10-27T15:10:59Z</time>
      </trkpt>
      <trkpt lat="46.08676" lon="4.06432">
        <ele>289.8</ele>
        <time>2010-10-27T15:11:48Z</time>
      </trkpt>
      <trkpt lat="46.08661" lon="4.06424">
        <ele>289.8</ele>
        <time>2010-10-27T15:11:51Z</time>
      </trkpt>
      <trkpt lat="46.08649" lon="4.06411">
        <ele>289.8</ele>
        <time>2010-10-27T15:11:57Z</time>
      </trkpt>
      <trkpt lat="46.08641" lon="4.0642">
        <ele>289.8</ele>
        <time>2010-10-27T15:12:00Z</time>
      </trkpt>
      <trkpt lat="46.08645" lon="4.06433">
        <ele>289.8</ele>
        <time>2010-10-27T15:12:05Z</time>
      </trkpt>
      <trkpt lat="46.08652" lon="4.06429">
        <ele>289.9</ele>
        <time>2010-10-27T15:12:08Z</time>
      </trkpt>
      <trkpt lat="46.08652" lon="4.06419">
        <ele>289.9</ele>
        <time>2010-10-27T15:12:10Z</time>
      </trkpt>
      <trkpt lat="46.08646" lon="4.06411">
        <ele>289.9</ele>
        <time>2010-10-27T15:12:12Z</time>
      </trkpt>
      <trkpt lat="46.086" lon="4.06403">
        <ele>289.9</ele>
        <time>2010-10-27T15:12:20Z</time>
      </trkpt>
      <trkpt lat="46.08549" lon="4.06384">
        <ele>289.9</ele>
        <time>2010-10-27T15:12:26Z</time>
      </trkpt>
      <trkpt lat="46.08517" lon="4.06376">
        <ele>289.9</ele>
        <time>2010-10-27T15:12:29Z</time>
      </trkpt>
      <trkpt lat="46.08495" lon="4.06378">
        <ele>289.9</ele>
        <time>2010-10-27T15:12:31Z</time>
      </trkpt>
      <trkpt lat="46.08466" lon="4.06397">
        <ele>289.9</ele>
        <time>2010-10-27T15:12:34Z</time>
      </trkpt>
      <trkpt lat="46.08458" lon="4.06407">
        <ele>289.9</ele>
        <time>2010-10-27T15:12:35Z</time>
      </trkpt>
      <trkpt lat="46.08458" lon="4.06407">
        <ele>289.9</ele>
        <time>2010-10-27T15:12:35Z</time>
      </trkpt>
    </trkseg>
  </trk>
</gpx>